Time;durP1;ratioP1;P1;durP2;ratioP2;P2;SDS_P1;SDS_P2;PMS_P1;PMS_P2;Temp;Humidity;BMP_temperature;BMP_pressure;BME280_temperature;BME280_humidity;BME280_pressure;Samples;Min_cycle;Max_cycle;Signal;HPM_P1;HPM_P2
2023/09/25 00:01:39;;;;;;;5.45;2.25;;;;;;;;;;10491090;28;20439;-80
2023/09/25 00:06:55;;;;;;;5.20;2.50;;;;;;;;;;10483821;28;20830;-81
2023/09/25 00:12:07;;;;;;;4.90;2.30;;;;;;;;;;10493674;28;20931;-81
2023/09/25 00:17:23;;;;;;;4.60;2.20;;;;;;;;;;10470679;28;20425;-80
2023/09/25 00:22:33;;;;;;;5.30;2.30;;;;;;;;;;10502754;28;20422;-81
2023/09/25 00:27:52;;;;;;;4.80;2.15;;;;;;;;;;10463792;28;20428;-81
2023/09/25 00:33:09;;;;;;;4.77;2.20;;;;;;;;;;10501879;28;20430;-80
2023/09/25 00:38:18;;;;;;;5.60;2.30;;;;;;;;;;10479745;28;20950;-81
2023/09/25 00:43:39;;;;;;;4.80;2.20;;;;;;;;;;10491122;28;20446;-81
2023/09/25 00:49:08;;;;;;;5.53;2.40;;;;;;;;;;10494013;28;20430;-77
2023/09/25 00:54:41;;;;;;;4.60;2.30;;;;;;;;;;10481651;28;20956;-79
2023/09/25 00:59:58;;;;;;;4.65;2.00;;;;;;;;;;10498740;28;20422;-80
2023/09/25 01:05:26;;;;;;;5.00;2.30;;;;;;;;;;10492163;28;20471;-79
2023/09/25 01:10:39;;;;;;;5.57;2.55;;;;;;;;;;10483902;28;20429;-80
2023/09/25 01:15:48;;;;;;;4.63;2.38;;;;;;;;;;10488139;28;20432;-80
2023/09/25 01:21:22;;;;;;;5.45;2.55;;;;;;;;;;10489850;28;20423;-80
2023/09/25 01:26:52;;;;;;;4.93;2.20;;;;;;;;;;10495472;28;20447;-80
2023/09/25 01:31:59;;;;;;;5.35;2.50;;;;;;;;;;10482790;28;20443;-80
2023/09/25 01:37:12;;;;;;;6.60;2.60;;;;;;;;;;10476411;28;20496;-80
2023/09/25 01:42:31;;;;;;;5.07;2.63;;;;;;;;;;10491348;28;20501;-79
2023/09/25 01:47:49;;;;;;;6.53;2.65;;;;;;;;;;10473465;28;20502;-79
2023/09/25 01:53:11;;;;;;;6.68;2.83;;;;;;;;;;10465507;28;20935;-81
2023/09/25 01:58:18;;;;;;;7.35;2.70;;;;;;;;;;10484417;28;20494;-79
2023/09/25 02:03:46;;;;;;;5.97;2.70;;;;;;;;;;10494505;28;20946;-80
2023/09/25 02:08:53;;;;;;;8.15;2.88;;;;;;;;;;10496871;28;20834;-80
2023/09/25 02:14:04;;;;;;;6.45;2.90;;;;;;;;;;10481101;28;20440;-79
2023/09/25 02:19:16;;;;;;;5.95;2.60;;;;;;;;;;10482095;28;20433;-79
2023/09/25 02:24:25;;;;;;;6.63;2.67;;;;;;;;;;10502393;28;20458;-79
2023/09/25 02:29:35;;;;;;;6.43;2.65;;;;;;;;;;10479112;28;20946;-79
2023/09/25 02:34:46;;;;;;;7.10;2.90;;;;;;;;;;10498552;28;20425;-79
2023/09/25 02:39:53;;;;;;;6.38;2.88;;;;;;;;;;10498769;28;20419;-80
2023/09/25 02:45:07;;;;;;;5.88;2.83;;;;;;;;;;10495318;28;20434;-80
2023/09/25 02:50:24;;;;;;;4.40;2.10;;;;;;;;;;10485353;28;20430;-80
2023/09/25 03:06:38;;;;;;;5.18;2.70;;;;;;;;;;10497632;28;20872;-79
2023/09/25 03:11:59;;;;;;;5.70;2.72;;;;;;;;;;10480750;28;20415;-79
2023/09/25 03:17:07;;;;;;;5.63;2.80;;;;;;;;;;10492650;28;20451;-80
2023/09/25 03:27:52;;;;;;;6.85;2.78;;;;;;;;;;10479166;28;20410;-78
2023/09/25 03:33:12;;;;;;;6.32;2.88;;;;;;;;;;10475175;28;20428;-80
2023/09/25 03:38:26;;;;;;;5.97;2.80;;;;;;;;;;10477912;28;20431;-80
2023/09/25 03:43:32;;;;;;;6.43;2.70;;;;;;;;;;10473002;28;20506;-81
2023/09/25 03:48:38;;;;;;;5.95;2.90;;;;;;;;;;10484027;28;20454;-81
2023/09/25 03:53:42;;;;;;;6.28;2.70;;;;;;;;;;10484316;28;20506;-81
2023/09/25 03:59:03;;;;;;;6.90;3.20;;;;;;;;;;10476246;28;20530;-80
2023/09/25 04:04:30;;;;;;;8.77;3.63;;;;;;;;;;10475251;28;20470;-81
2023/09/25 04:09:43;;;;;;;6.43;3.50;;;;;;;;;;10497571;28;20420;-81
2023/09/25 04:14:57;;;;;;;8.40;3.80;;;;;;;;;;10472093;28;20505;-79
2023/09/25 04:20:17;;;;;;;7.37;3.60;;;;;;;;;;10485946;28;20502;-80
2023/09/25 04:25:27;;;;;;;6.05;3.22;;;;;;;;;;10494204;28;20431;-82
2023/09/25 04:30:42;;;;;;;5.47;3.20;;;;;;;;;;10487451;28;20839;-81
2023/09/25 04:36:24;;;;;;;8.70;3.88;;;;;;;;;;10473062;28;20427;-81
2023/09/25 04:41:33;;;;;;;6.73;3.20;;;;;;;;;;10477434;28;20449;-82
2023/09/25 04:46:59;;;;;;;8.20;4.10;;;;;;;;;;10460231;28;20414;-81
2023/09/25 04:52:13;;;;;;;6.75;3.72;;;;;;;;;;10498172;28;20939;-82
2023/09/25 04:57:20;;;;;;;8.07;4.07;;;;;;;;;;10497919;28;20524;-81
2023/09/25 05:02:26;;;;;;;6.18;3.30;;;;;;;;;;10475411;28;20428;-81
2023/09/25 05:07:47;;;;;;;6.53;2.92;;;;;;;;;;10473407;28;20425;-80
2023/09/25 05:18:22;;;;;;;7.78;3.45;;;;;;;;;;10483601;28;20515;-80
2023/09/25 05:23:33;;;;;;;9.30;4.30;;;;;;;;;;10477692;28;21235;-80
2023/09/25 05:28:55;;;;;;;9.77;4.63;;;;;;;;;;10463281;28;20948;-79
2023/09/25 05:34:03;;;;;;;7.50;3.58;;;;;;;;;;10489645;28;20411;-81
2023/09/25 05:39:17;;;;;;;6.53;3.88;;;;;;;;;;10477535;28;20418;-81
2023/09/25 05:44:28;;;;;;;8.10;4.50;;;;;;;;;;10498878;28;20875;-79
2023/09/25 05:49:44;;;;;;;8.32;3.90;;;;;;;;;;10458706;28;20762;-80
2023/09/25 06:00:34;;;;;;;7.03;3.97;;;;;;;;;;10478821;28;20431;-80
2023/09/25 06:05:39;;;;;;;6.43;3.65;;;;;;;;;;10492493;28;20427;-81
2023/09/25 06:10:48;;;;;;;12.55;4.32;;;;;;;;;;10495620;28;20510;-79
2023/09/25 06:15:53;;;;;;;6.70;3.65;;;;;;;;;;10493976;28;20910;-79
2023/09/25 06:21:03;;;;;;;5.55;2.78;;;;;;;;;;10483455;28;20846;-80
2023/09/25 06:26:10;;;;;;;5.47;3.30;;;;;;;;;;10484518;28;20427;-80
2023/09/25 06:31:23;;;;;;;8.07;3.55;;;;;;;;;;10467481;28;20972;-82
2023/09/25 06:36:29;;;;;;;5.18;3.08;;;;;;;;;;10484943;28;20430;-80
2023/09/25 06:41:44;;;;;;;6.63;3.22;;;;;;;;;;10486742;28;20471;-81
2023/09/25 06:46:54;;;;;;;5.55;3.10;;;;;;;;;;10481999;28;20439;-80
2023/09/25 06:52:01;;;;;;;5.38;3.10;;;;;;;;;;10500899;28;20415;-80
2023/09/25 06:57:23;;;;;;;7.30;3.00;;;;;;;;;;10507427;28;20418;-79
2023/09/25 07:02:39;;;;;;;5.97;3.10;;;;;;;;;;10515827;28;20433;-79
2023/09/25 07:13:08;;;;;;;6.90;3.25;;;;;;;;;;10498471;28;20419;-80
2023/09/25 07:29:21;;;;;;;4.90;2.90;;;;;;;;;;10526549;28;20435;-79
2023/09/25 07:35:07;;;;;;;5.00;2.87;;;;;;;;;;10514516;28;20485;-79
2023/09/25 07:40:23;;;;;;;4.30;2.72;;;;;;;;;;10528461;28;20426;-80
2023/09/25 07:45:38;;;;;;;4.63;2.80;;;;;;;;;;10531288;28;20435;-80
2023/09/25 07:50:46;;;;;;;3.80;2.63;;;;;;;;;;10525163;28;20430;-80
2023/09/25 07:56:17;;;;;;;2.95;2.13;;;;;;;;;;10522081;28;20435;-80
2023/09/25 08:01:29;;;;;;;4.47;2.70;;;;;;;;;;10519098;28;20444;-83
2023/09/25 08:06:37;;;;;;;3.25;2.30;;;;;;;;;;10488111;28;20423;-80
2023/09/25 08:11:40;;;;;;;5.45;2.65;;;;;;;;;;10476704;28;20455;-81
2023/09/25 08:22:36;;;;;;;3.78;2.35;;;;;;;;;;10512262;27;20939;-79
2023/09/25 08:27:40;;;;;;;2.95;2.17;;;;;;;;;;10503927;28;20426;-79
2023/09/25 08:32:43;;;;;;;4.07;2.58;;;;;;;;;;10508879;28;20884;-80
2023/09/25 08:37:47;;;;;;;3.38;2.40;;;;;;;;;;10503905;28;20906;-79
2023/09/25 08:42:51;;;;;;;3.17;2.30;;;;;;;;;;10503244;28;20417;-79
2023/09/25 08:48:07;;;;;;;3.80;2.50;;;;;;;;;;10512602;28;20419;-79
2023/09/25 08:53:11;;;;;;;2.85;2.38;;;;;;;;;;10513014;28;20453;-79
2023/09/25 08:58:14;;;;;;;3.67;2.42;;;;;;;;;;10505438;28;20459;-80
2023/09/25 09:03:17;;;;;;;5.60;3.05;;;;;;;;;;10506206;28;20430;-80
2023/09/25 09:08:22;;;;;;;3.53;2.60;;;;;;;;;;10499954;28;20454;-80
2023/09/25 09:13:25;;;;;;;3.63;2.53;;;;;;;;;;10503995;28;20943;-78
2023/09/25 09:18:29;;;;;;;3.83;2.47;;;;;;;;;;10492196;28;20437;-78
2023/09/25 09:23:40;;;;;;;3.37;2.73;;;;;;;;;;10498804;28;20512;-79
2023/09/25 09:28:43;;;;;;;3.22;2.47;;;;;;;;;;10495182;28;20433;-78
2023/09/25 09:33:47;;;;;;;4.83;2.60;;;;;;;;;;10466365;28;20511;-79
2023/09/25 09:38:53;;;;;;;3.45;2.30;;;;;;;;;;10464872;28;20421;-79
2023/09/25 09:43:55;;;;;;;2.70;2.30;;;;;;;;;;10466615;28;20457;-80
2023/09/25 09:48:59;;;;;;;2.47;2.23;;;;;;;;;;10468653;28;20531;-80
2023/09/25 09:54:05;;;;;;;2.90;2.40;;;;;;;;;;10473181;28;20502;-79
2023/09/25 09:59:08;;;;;;;2.67;2.17;;;;;;;;;;10466599;28;20424;-79
2023/09/25 10:04:11;;;;;;;3.08;2.40;;;;;;;;;;10468867;28;20962;-79
2023/09/25 10:09:15;;;;;;;3.10;2.23;;;;;;;;;;10462857;28;20434;-79
2023/09/25 10:14:20;;;;;;;2.83;2.20;;;;;;;;;;10466339;28;20459;-81
2023/09/25 10:19:23;;;;;;;4.75;2.33;;;;;;;;;;10464533;28;20579;-81
2023/09/25 10:24:28;;;;;;;2.20;2.00;;;;;;;;;;10461309;28;20427;-80
2023/09/25 10:29:31;;;;;;;3.33;2.38;;;;;;;;;;10472226;28;20418;-81
2023/09/25 10:34:33;;;;;;;3.47;2.25;;;;;;;;;;10470352;28;20544;-81
2023/09/25 10:39:38;;;;;;;2.40;2.00;;;;;;;;;;10466504;28;20522;-80
2023/09/25 10:44:41;;;;;;;3.63;2.30;;;;;;;;;;10468657;28;21001;-81
2023/09/25 10:49:47;;;;;;;4.55;2.72;;;;;;;;;;10467744;28;20416;-80
2023/09/25 10:54:52;;;;;;;3.23;2.37;;;;;;;;;;10462267;28;20425;-82
2023/09/25 10:59:55;;;;;;;3.60;2.45;;;;;;;;;;10465549;28;20504;-80
2023/09/25 11:04:58;;;;;;;2.50;2.30;;;;;;;;;;10468987;28;20609;-81
2023/09/25 11:10:02;;;;;;;2.70;2.20;;;;;;;;;;10466344;28;20447;-80
2023/09/25 11:15:10;;;;;;;3.17;2.30;;;;;;;;;;10462428;28;20943;-80
2023/09/25 11:20:18;;;;;;;3.67;2.47;;;;;;;;;;10466811;28;20433;-81
2023/09/25 11:25:25;;;;;;;3.45;2.55;;;;;;;;;;10459034;28;20423;-82
2023/09/25 11:30:30;;;;;;;3.43;2.30;;;;;;;;;;10469922;28;20546;-81
2023/09/25 11:35:37;;;;;;;3.20;2.28;;;;;;;;;;10460763;28;20433;-82
2023/09/25 11:40:41;;;;;;;3.65;2.60;;;;;;;;;;10463584;28;20946;-81
2023/09/25 11:45:44;;;;;;;3.15;2.40;;;;;;;;;;10456228;28;21098;-82
2023/09/25 11:50:48;;;;;;;4.13;2.67;;;;;;;;;;10463330;28;20432;-83
2023/09/25 11:55:53;;;;;;;2.67;2.33;;;;;;;;;;10456861;28;20979;-83
2023/09/25 12:00:56;;;;;;;3.93;2.57;;;;;;;;;;10457399;28;20863;-81
2023/09/25 12:05:59;;;;;;;3.25;2.50;;;;;;;;;;10461171;28;20909;-82
2023/09/25 12:11:03;;;;;;;3.50;2.40;;;;;;;;;;10453129;28;20922;-82
2023/09/25 12:16:06;;;;;;;3.53;2.30;;;;;;;;;;10464014;28;20981;-81
2023/09/25 12:21:09;;;;;;;4.53;2.28;;;;;;;;;;10461688;28;20459;-81
2023/09/25 12:26:15;;;;;;;4.15;2.33;;;;;;;;;;10459397;28;20435;-80
2023/09/25 12:31:19;;;;;;;2.83;2.00;;;;;;;;;;10439696;28;20436;-80
2023/09/25 12:36:28;;;;;;;3.13;2.10;;;;;;;;;;10461630;28;20454;-81
2023/09/25 12:41:41;;;;;;;3.05;2.33;;;;;;;;;;10461040;28;20510;-81
2023/09/25 12:46:59;;;;;;;3.60;2.28;;;;;;;;;;10487114;28;20812;-81
2023/09/25 12:52:16;;;;;;;3.50;2.30;;;;;;;;;;10457900;28;20445;-81
2023/09/25 13:03:05;;;;;;;3.15;2.10;;;;;;;;;;10459408;28;20792;-81
2023/09/25 13:08:26;;;;;;;2.38;2.08;;;;;;;;;;10457423;28;20419;-81
2023/09/25 13:14:02;;;;;;;2.83;2.00;;;;;;;;;;10466869;28;20521;-80
2023/09/25 13:19:13;;;;;;;3.47;2.30;;;;;;;;;;10457968;28;20439;-81
2023/09/25 13:24:19;;;;;;;2.10;1.90;;;;;;;;;;10469665;28;21065;-80
2023/09/25 13:29:29;;;;;;;3.53;2.10;;;;;;;;;;10471860;28;20432;-82
2023/09/25 13:34:42;;;;;;;4.13;2.08;;;;;;;;;;10464804;28;20422;-83
2023/09/25 13:50:42;;;;;;;2.67;2.00;;;;;;;;;;10462564;28;20428;-81
2023/09/25 13:55:52;;;;;;;2.70;1.98;;;;;;;;;;10466179;28;20429;-83
2023/09/25 14:00:59;;;;;;;5.70;2.20;;;;;;;;;;10464769;28;20879;-83
2023/09/25 14:06:13;;;;;;;3.70;2.10;;;;;;;;;;10463909;28;20610;-80
2023/09/25 14:11:20;;;;;;;4.17;2.40;;;;;;;;;;10464582;28;21078;-81
2023/09/25 14:16:24;;;;;;;3.28;2.10;;;;;;;;;;10468456;28;20603;-82
2023/09/25 14:26:59;;;;;;;3.63;1.88;;;;;;;;;;10503017;27;20866;-81
2023/09/25 14:32:02;;;;;;;5.05;2.58;;;;;;;;;;10465267;28;20508;-81
2023/09/25 14:37:05;;;;;;;3.27;2.30;;;;;;;;;;10464953;28;20535;-82
2023/09/25 14:42:09;;;;;;;3.70;2.30;;;;;;;;;;10462118;28;20440;-82
2023/09/25 14:47:12;;;;;;;4.43;2.40;;;;;;;;;;10469522;28;20997;-81
2023/09/25 14:52:15;;;;;;;5.22;2.47;;;;;;;;;;10460764;28;20927;-81
2023/09/25 14:57:19;;;;;;;4.40;2.55;;;;;;;;;;10463502;28;20440;-82
2023/09/25 15:02:22;;;;;;;4.32;2.50;;;;;;;;;;10468759;28;20769;-82
2023/09/25 15:07:26;;;;;;;5.10;2.57;;;;;;;;;;10460307;28;20541;-81
2023/09/25 15:12:31;;;;;;;4.10;2.40;;;;;;;;;;10459261;28;20425;-82
2023/09/25 15:17:34;;;;;;;7.85;2.67;;;;;;;;;;10469930;28;20520;-81
2023/09/25 15:22:36;;;;;;;5.65;2.70;;;;;;;;;;10462801;28;20567;-81
2023/09/25 15:27:42;;;;;;;4.57;2.80;;;;;;;;;;10463521;28;20444;-82
2023/09/25 15:32:45;;;;;;;5.40;2.80;;;;;;;;;;10452673;28;20521;-81
2023/09/25 15:37:48;;;;;;;7.22;3.00;;;;;;;;;;10434744;28;20436;-80
2023/09/25 15:42:52;;;;;;;7.70;2.93;;;;;;;;;;10429187;28;20490;-81
2023/09/25 15:47:56;;;;;;;4.13;2.83;;;;;;;;;;10439393;28;20483;-80
2023/09/25 15:52:59;;;;;;;5.78;3.20;;;;;;;;;;10437701;28;20823;-81
2023/09/25 15:58:03;;;;;;;7.57;3.70;;;;;;;;;;10432662;28;20453;-81
2023/09/25 16:03:05;;;;;;;6.55;3.30;;;;;;;;;;10437515;28;20512;-81
2023/09/25 16:08:08;;;;;;;5.80;3.40;;;;;;;;;;10434628;28;20437;-81
2023/09/25 16:13:12;;;;;;;5.00;3.17;;;;;;;;;;10437097;28;20532;-82
2023/09/25 16:18:15;;;;;;;7.03;3.85;;;;;;;;;;10430563;28;20437;-81
2023/09/25 16:23:18;;;;;;;7.80;3.50;;;;;;;;;;10434040;28;20464;-81
2023/09/25 16:28:22;;;;;;;7.20;3.70;;;;;;;;;;10438394;28;20560;-81
2023/09/25 16:33:25;;;;;;;11.65;6.40;;;;;;;;;;10433739;28;20416;-82
2023/09/25 16:38:28;;;;;;;6.38;3.33;;;;;;;;;;10431851;28;20940;-81
2023/09/25 16:43:33;;;;;;;5.50;3.75;;;;;;;;;;10436589;28;20965;-80
2023/09/25 16:48:36;;;;;;;7.00;3.70;;;;;;;;;;10434210;28;20461;-81
2023/09/25 16:53:41;;;;;;;6.95;3.42;;;;;;;;;;10433262;28;20488;-80
2023/09/25 16:58:45;;;;;;;6.13;3.67;;;;;;;;;;10438305;28;20460;-80
2023/09/25 17:03:47;;;;;;;7.10;3.50;;;;;;;;;;10433548;28;20903;-80
2023/09/25 17:08:51;;;;;;;7.00;3.70;;;;;;;;;;10433128;28;20456;-80
2023/09/25 17:13:55;;;;;;;7.03;4.00;;;;;;;;;;10437515;28;20449;-80
2023/09/25 17:18:58;;;;;;;8.60;4.53;;;;;;;;;;10431531;28;20506;-80
2023/09/25 17:24:01;;;;;;;7.53;4.30;;;;;;;;;;10435242;28;20433;-80
2023/09/25 17:29:05;;;;;;;9.30;4.38;;;;;;;;;;10433176;28;20453;-80
2023/09/25 17:34:08;;;;;;;9.45;4.65;;;;;;;;;;10434428;28;20454;-80
2023/09/25 17:39:11;;;;;;;7.38;4.30;;;;;;;;;;10437395;28;20456;-80
2023/09/25 17:44:15;;;;;;;7.07;4.10;;;;;;;;;;10430950;28;20500;-79
2023/09/25 17:49:17;;;;;;;7.88;4.70;;;;;;;;;;10436526;28;20965;-79
2023/09/25 17:54:20;;;;;;;9.00;4.50;;;;;;;;;;10434739;28;20421;-79
2023/09/25 17:59:24;;;;;;;11.30;4.93;;;;;;;;;;10432406;28;21082;-79
2023/09/25 18:04:27;;;;;;;9.73;4.60;;;;;;;;;;10432122;28;20433;-81
2023/09/25 18:09:30;;;;;;;8.98;4.65;;;;;;;;;;10431059;28;20534;-80
2023/09/25 18:14:34;;;;;;;11.43;4.97;;;;;;;;;;10434015;28;20473;-80
2023/09/25 18:19:37;;;;;;;10.50;5.40;;;;;;;;;;10430270;28;20559;-79
2023/09/25 18:24:40;;;;;;;10.70;5.43;;;;;;;;;;10430301;28;20476;-79
2023/09/25 18:29:44;;;;;;;16.35;9.35;;;;;;;;;;10435013;28;20450;-80
2023/09/25 18:34:48;;;;;;;19.08;10.45;;;;;;;;;;10431453;28;20512;-79
2023/09/25 18:39:51;;;;;;;20.98;10.52;;;;;;;;;;10433640;28;20553;-79
2023/09/25 18:44:55;;;;;;;10.82;6.60;;;;;;;;;;10432565;28;20431;-79
2023/09/25 18:49:57;;;;;;;11.63;6.60;;;;;;;;;;10431160;28;20471;-79
2023/09/25 18:55:00;;;;;;;12.43;5.97;;;;;;;;;;10425580;28;20522;-78
2023/09/25 19:00:06;;;;;;;12.43;5.88;;;;;;;;;;10434877;28;20448;-79
2023/09/25 19:05:09;;;;;;;10.93;6.03;;;;;;;;;;10429778;28;20437;-79
2023/09/25 19:10:12;;;;;;;46.97;24.93;;;;;;;;;;10435506;28;20451;-79
2023/09/25 19:15:16;;;;;;;14.17;8.20;;;;;;;;;;10443532;28;20468;-79
2023/09/25 19:20:19;;;;;;;12.95;6.80;;;;;;;;;;10439571;28;20526;-79
2023/09/25 19:25:22;;;;;;;14.52;7.50;;;;;;;;;;10475816;28;20841;-79
2023/09/25 19:30:26;;;;;;;12.90;6.68;;;;;;;;;;10439293;28;20685;-79
2023/09/25 19:35:30;;;;;;;10.38;6.75;;;;;;;;;;10443551;28;21028;-78
2023/09/25 19:40:33;;;;;;;12.57;7.53;;;;;;;;;;10439304;28;20500;-79
2023/09/25 19:45:37;;;;;;;14.20;8.10;;;;;;;;;;10441107;28;20983;-79
2023/09/25 19:50:40;;;;;;;14.30;7.32;;;;;;;;;;10442765;28;20425;-79
2023/09/25 19:55:43;;;;;;;10.70;7.10;;;;;;;;;;10443020;28;20512;-79
2023/09/25 20:00:47;;;;;;;16.30;8.07;;;;;;;;;;10439878;28;20436;-79
2023/09/25 20:05:50;;;;;;;14.13;7.50;;;;;;;;;;10442852;28;20437;-80
2023/09/25 20:10:52;;;;;;;13.18;7.85;;;;;;;;;;10442326;28;20516;-79
2023/09/25 20:15:56;;;;;;;13.90;7.53;;;;;;;;;;10442254;28;20461;-80
2023/09/25 20:20:59;;;;;;;12.90;7.30;;;;;;;;;;10441012;28;20471;-79
2023/09/25 20:26:06;;;;;;;13.85;7.78;;;;;;;;;;10440732;28;20971;-79
2023/09/25 20:31:10;;;;;;;13.15;7.38;;;;;;;;;;10432486;28;20519;-77
2023/09/25 20:36:13;;;;;;;12.37;7.97;;;;;;;;;;10441807;28;20448;-78
2023/09/25 20:41:15;;;;;;;10.93;7.13;;;;;;;;;;10436312;28;20507;-79
2023/09/25 20:46:19;;;;;;;13.88;7.78;;;;;;;;;;10439790;28;20421;-80
2023/09/25 20:51:22;;;;;;;12.83;7.70;;;;;;;;;;10438678;28;20439;-80
2023/09/25 20:56:25;;;;;;;14.57;8.37;;;;;;;;;;10435120;28;20431;-79
2023/09/25 21:01:29;;;;;;;14.38;8.32;;;;;;;;;;10438946;28;20907;-79
2023/09/25 21:06:32;;;;;;;15.10;8.10;;;;;;;;;;10438353;28;21070;-80
2023/09/25 21:11:35;;;;;;;14.30;8.32;;;;;;;;;;10434850;28;20417;-79
2023/09/25 21:16:39;;;;;;;15.38;8.13;;;;;;;;;;10437570;28;20922;-78
2023/09/25 21:21:41;;;;;;;15.00;8.23;;;;;;;;;;10436539;28;20432;-79
2023/09/25 21:26:44;;;;;;;13.75;8.27;;;;;;;;;;10436670;28;21418;-78
2023/09/25 21:31:48;;;;;;;16.80;8.80;;;;;;;;;;10437355;28;20514;-79
2023/09/25 21:36:51;;;;;;;15.33;8.43;;;;;;;;;;10470837;28;20771;-79
2023/09/25 21:41:53;;;;;;;14.63;8.75;;;;;;;;;;10435929;28;20865;-80
2023/09/25 21:46:57;;;;;;;14.77;8.55;;;;;;;;;;10436139;28;20425;-79
2023/09/25 21:52:01;;;;;;;16.10;8.77;;;;;;;;;;10439742;28;20435;-79
2023/09/25 21:57:03;;;;;;;17.13;9.57;;;;;;;;;;10443665;28;20508;-79
2023/09/25 22:02:08;;;;;;;15.87;9.23;;;;;;;;;;10444312;28;20426;-79
2023/09/25 22:07:10;;;;;;;15.90;8.95;;;;;;;;;;10436336;28;20440;-80
2023/09/25 22:12:13;;;;;;;16.75;8.90;;;;;;;;;;10436561;28;20479;-80
2023/09/25 22:17:18;;;;;;;16.40;9.60;;;;;;;;;;10434824;28;20492;-78
2023/09/25 22:22:21;;;;;;;16.80;9.07;;;;;;;;;;10435553;28;20488;-80
2023/09/25 22:27:24;;;;;;;15.70;9.33;;;;;;;;;;10437436;28;20972;-80
2023/09/25 22:32:28;;;;;;;16.48;9.40;;;;;;;;;;10433792;28;20478;-80
2023/09/25 22:37:31;;;;;;;18.88;10.05;;;;;;;;;;10434753;28;20425;-80
2023/09/25 22:42:33;;;;;;;16.73;9.50;;;;;;;;;;10437700;28;20950;-80
2023/09/25 22:47:38;;;;;;;15.85;9.90;;;;;;;;;;10443431;28;20432;-81
2023/09/25 22:52:40;;;;;;;17.70;9.77;;;;;;;;;;10442907;28;20418;-81
2023/09/25 22:57:43;;;;;;;16.70;9.83;;;;;;;;;;10451279;28;21146;-80
2023/09/25 23:02:47;;;;;;;16.57;10.13;;;;;;;;;;10450427;28;20507;-80
2023/09/25 23:07:51;;;;;;;16.13;9.65;;;;;;;;;;10453926;28;20999;-80
2023/09/25 23:12:54;;;;;;;17.85;9.98;;;;;;;;;;10429108;28;20536;-80
2023/09/25 23:17:59;;;;;;;17.55;10.25;;;;;;;;;;10444434;28;20429;-80
2023/09/25 23:23:02;;;;;;;18.25;9.93;;;;;;;;;;10434444;28;20633;-79
2023/09/25 23:28:05;;;;;;;17.85;10.50;;;;;;;;;;10440564;28;20420;-80
2023/09/25 23:33:12;;;;;;;18.05;10.30;;;;;;;;;;10445598;28;20858;-81
2023/09/25 23:38:15;;;;;;;18.43;10.70;;;;;;;;;;10445181;28;20520;-80
2023/09/25 23:43:17;;;;;;;19.40;10.13;;;;;;;;;;10442431;28;20497;-79
2023/09/25 23:48:21;;;;;;;19.35;10.98;;;;;;;;;;10444747;28;20409;-79
2023/09/25 23:53:24;;;;;;;19.08;10.25;;;;;;;;;;10442732;28;20528;-79
2023/09/25 23:58:27;;;;;;;18.80;10.60;;;;;;;;;;10438660;28;20425;-81
